Rugby, North Dakota
Current Conditions -  °F | °C
As of 2:15 PM on Friday 31 Oct 2014 (Local Time) from KRUG Reporting Station
Clear Clear  
Wind Chill: 26°   Ceiling: Unl
Heat Index: 36°   Visibility: 10mi
Dew Point: 14°   Wind: 16mph
Humidity: 41%   Direction: 180°S
Pressure: 30.35"   Gusts: 25mph
Location:  48.37°N, 100°W
Report Text: KRUG 311915Z AUTO 18014G22KT 10SM CLR 02/M10 A3035 RMK AO2
Loading
Personal Weather Stations






























Interactive Weather Map
Tropical Storm Tracking
New forecast layout! Learn more

10-Day Weather Forecast

Advertisements
Track Severe Weather on mobile